sensor_id;sensor_type;location;lat;lon;timestamp;pressure;altitude;pressure_sealevel;temperature;humidity
35577;BME280;21680;52.400;16.920;2023-09-19T00:00:45;99873.43;;;18.17;77.99
35577;BME280;21680;52.400;16.920;2023-09-19T00:03:13;99865.61;;;18.13;78.43
35577;BME280;21680;52.400;16.920;2023-09-19T00:05:39;99868.15;;;18.11;78.32
35577;BME280;21680;52.400;16.920;2023-09-19T00:08:04;99868.89;;;18.07;78.46
35577;BME280;21680;52.400;16.920;2023-09-19T00:10:32;99866.21;;;18.04;78.59
35577;BME280;21680;52.400;16.920;2023-09-19T00:13:02;99871.20;;;17.99;79.26
35577;BME280;21680;52.400;16.920;2023-09-19T00:15:46;99882.92;;;17.97;79.51
35577;BME280;21680;52.400;16.920;2023-09-19T00:18:14;99893.69;;;17.94;79.73
35577;BME280;21680;52.400;16.920;2023-09-19T00:20:41;99902.27;;;17.91;80.48
35577;BME280;21680;52.400;16.920;2023-09-19T00:23:08;99902.02;;;17.88;80.78
35577;BME280;21680;52.400;16.920;2023-09-19T00:25:34;99908.71;;;17.85;81.05
35577;BME280;21680;52.400;16.920;2023-09-19T00:28:04;99920.87;;;17.85;81.39
35577;BME280;21680;52.400;16.920;2023-09-19T00:30:30;99924.89;;;17.80;81.92
35577;BME280;21680;52.400;16.920;2023-09-19T00:32:55;99925.15;;;17.77;82.22
35577;BME280;21680;52.400;16.920;2023-09-19T00:35:21;99920.34;;;17.76;82.45
35577;BME280;21680;52.400;16.920;2023-09-19T00:37:51;99913.96;;;17.74;82.43
35577;BME280;21680;52.400;16.920;2023-09-19T00:40:17;99913.48;;;17.74;82.67
35577;BME280;21680;52.400;16.920;2023-09-19T00:42:43;99910.19;;;17.70;83.13
35577;BME280;21680;52.400;16.920;2023-09-19T00:45:10;99910.35;;;17.68;83.27
35577;BME280;21680;52.400;16.920;2023-09-19T00:47:43;99905.23;;;17.67;83.46
35577;BME280;21680;52.400;16.920;2023-09-19T00:50:09;99902.86;;;17.67;83.35
35577;BME280;21680;52.400;16.920;2023-09-19T00:52:36;99909.56;;;17.67;83.61
35577;BME280;21680;52.400;16.920;2023-09-19T00:55:08;99900.70;;;17.67;83.93
35577;BME280;21680;52.400;16.920;2023-09-19T00:57:34;99894.09;;;17.66;84.01
35577;BME280;21680;52.400;16.920;2023-09-19T01:00:01;99893.20;;;17.66;84.08
35577;BME280;21680;52.400;16.920;2023-09-19T01:02:31;99895.75;;;17.66;84.31
35577;BME280;21680;52.400;16.920;2023-09-19T01:04:58;99897.02;;;17.65;84.07
35577;BME280;21680;52.400;16.920;2023-09-19T01:07:23;99886.90;;;17.63;84.43
35577;BME280;21680;52.400;16.920;2023-09-19T01:09:49;99883.58;;;17.64;84.41
35577;BME280;21680;52.400;16.920;2023-09-19T01:12:21;99881.14;;;17.63;84.53
35577;BME280;21680;52.400;16.920;2023-09-19T01:14:55;99886.84;;;17.62;84.86
35577;BME280;21680;52.400;16.920;2023-09-19T01:17:29;99892.63;;;17.62;85.31
35577;BME280;21680;52.400;16.920;2023-09-19T01:20:09;99893.23;;;17.61;85.32
35577;BME280;21680;52.400;16.920;2023-09-19T01:22:56;99895.23;;;17.61;85.34
35577;BME280;21680;52.400;16.920;2023-09-19T01:25:56;99891.90;;;17.62;85.44
35577;BME280;21680;52.400;16.920;2023-09-19T01:28:45;99889.11;;;17.61;85.66
35577;BME280;21680;52.400;16.920;2023-09-19T01:31:19;99891.02;;;17.59;85.91
35577;BME280;21680;52.400;16.920;2023-09-19T01:34:00;99893.30;;;17.60;85.98
35577;BME280;21680;52.400;16.920;2023-09-19T01:36:34;99893.33;;;17.60;86.33
35577;BME280;21680;52.400;16.920;2023-09-19T01:39:05;99886.92;;;17.59;86.68
35577;BME280;21680;52.400;16.920;2023-09-19T01:41:51;99887.30;;;17.58;86.73
35577;BME280;21680;52.400;16.920;2023-09-19T01:44:36;99880.74;;;17.57;87.02
35577;BME280;21680;52.400;16.920;2023-09-19T01:47:14;99882.52;;;17.55;87.07
35577;BME280;21680;52.400;16.920;2023-09-19T01:49:48;99882.55;;;17.55;87.58
35577;BME280;21680;52.400;16.920;2023-09-19T01:52:15;99879.42;;;17.56;87.52
35577;BME280;21680;52.400;16.920;2023-09-19T01:55:02;99874.48;;;17.56;87.40
35577;BME280;21680;52.400;16.920;2023-09-19T01:58:01;99874.54;;;17.58;87.45
35577;BME280;21680;52.400;16.920;2023-09-19T02:00:32;99874.99;;;17.61;87.28
35577;BME280;21680;52.400;16.920;2023-09-19T02:02:59;99882.65;;;17.64;87.47
35577;BME280;21680;52.400;16.920;2023-09-19T02:05:25;99884.42;;;17.67;87.70
35577;BME280;21680;52.400;16.920;2023-09-19T02:07:51;99879.91;;;17.69;87.51
35577;BME280;21680;52.400;16.920;2023-09-19T02:10:17;99878.67;;;17.71;87.73
35577;BME280;21680;52.400;16.920;2023-09-19T02:12:43;99875.49;;;17.72;87.72
35577;BME280;21680;52.400;16.920;2023-09-19T02:15:09;99871.84;;;17.73;87.71
35577;BME280;21680;52.400;16.920;2023-09-19T02:17:34;99873.70;;;17.74;87.67
35577;BME280;21680;52.400;16.920;2023-09-19T02:20:00;99875.48;;;17.74;87.73
35577;BME280;21680;52.400;16.920;2023-09-19T02:22:26;99873.58;;;17.76;87.76
35577;BME280;21680;52.400;16.920;2023-09-19T02:24:52;99872.78;;;17.76;87.74
35577;BME280;21680;52.400;16.920;2023-09-19T02:27:19;99872.61;;;17.76;87.77
35577;BME280;21680;52.400;16.920;2023-09-19T02:29:44;99874.11;;;17.75;88.04
35577;BME280;21680;52.400;16.920;2023-09-19T02:32:09;99884.13;;;17.75;88.10
35577;BME280;21680;52.400;16.920;2023-09-19T02:34:36;99886.13;;;17.75;88.00
35577;BME280;21680;52.400;16.920;2023-09-19T02:37:03;99885.37;;;17.73;87.85
35577;BME280;21680;52.400;16.920;2023-09-19T02:39:30;99884.75;;;17.72;87.96
35577;BME280;21680;52.400;16.920;2023-09-19T02:41:56;99889.46;;;17.71;88.17
35577;BME280;21680;52.400;16.920;2023-09-19T02:44:21;99882.79;;;17.69;88.21
35577;BME280;21680;52.400;16.920;2023-09-19T02:46:47;99881.92;;;17.67;88.28
35577;BME280;21680;52.400;16.920;2023-09-19T02:49:12;99885.09;;;17.66;88.24
35577;BME280;21680;52.400;16.920;2023-09-19T02:51:38;99882.71;;;17.63;88.33
35577;BME280;21680;52.400;16.920;2023-09-19T02:54:03;99886.81;;;17.62;88.41
35577;BME280;21680;52.400;16.920;2023-09-19T02:56:29;99891.27;;;17.60;88.38
35577;BME280;21680;52.400;16.920;2023-09-19T02:58:56;99897.42;;;17.59;88.66
35577;BME280;21680;52.400;16.920;2023-09-19T03:01:21;99902.87;;;17.56;88.55
35577;BME280;21680;52.400;16.920;2023-09-19T03:03:47;99903.80;;;17.53;88.64
35577;BME280;21680;52.400;16.920;2023-09-19T03:06:13;99894.35;;;17.50;88.57
35577;BME280;21680;52.400;16.920;2023-09-19T03:08:40;99889.73;;;17.49;88.73
35577;BME280;21680;52.400;16.920;2023-09-19T03:11:10;99889.03;;;17.46;88.70
35577;BME280;21680;52.400;16.920;2023-09-19T03:13:38;99880.80;;;17.43;88.64
35577;BME280;21680;52.400;16.920;2023-09-19T03:16:06;99882.06;;;17.39;88.77
35577;BME280;21680;52.400;16.920;2023-09-19T03:18:34;99889.96;;;17.35;88.93
35577;BME280;21680;52.400;16.920;2023-09-19T03:20:59;99893.52;;;17.32;89.07
35577;BME280;21680;52.400;16.920;2023-09-19T03:23:26;99887.63;;;17.27;88.98
35577;BME280;21680;52.400;16.920;2023-09-19T03:25:52;99884.08;;;17.24;88.96
35577;BME280;21680;52.400;16.920;2023-09-19T03:28:18;99880.83;;;17.19;89.09
35577;BME280;21680;52.400;16.920;2023-09-19T03:30:45;99870.86;;;17.15;89.12
35577;BME280;21680;52.400;16.920;2023-09-19T03:33:11;99870.80;;;17.12;89.28
35577;BME280;21680;52.400;16.920;2023-09-19T03:35:37;99866.80;;;17.08;89.26
35577;BME280;21680;52.400;16.920;2023-09-19T03:38:03;99871.05;;;17.04;89.56
35577;BME280;21680;52.400;16.920;2023-09-19T03:40:30;99869.08;;;17.00;89.54
35577;BME280;21680;52.400;16.920;2023-09-19T03:42:55;99861.16;;;16.98;89.65
35577;BME280;21680;52.400;16.920;2023-09-19T03:45:20;99859.98;;;16.95;89.76
35577;BME280;21680;52.400;16.920;2023-09-19T03:47:46;99856.34;;;16.93;89.92
35577;BME280;21680;52.400;16.920;2023-09-19T03:50:15;99851.81;;;16.91;89.89
35577;BME280;21680;52.400;16.920;2023-09-19T03:52:43;99851.57;;;16.89;89.81
35577;BME280;21680;52.400;16.920;2023-09-19T03:55:08;99854.92;;;16.88;89.96
35577;BME280;21680;52.400;16.920;2023-09-19T03:57:34;99855.83;;;16.85;89.93
35577;BME280;21680;52.400;16.920;2023-09-19T04:00:01;99859.98;;;16.83;89.94
35577;BME280;21680;52.400;16.920;2023-09-19T04:02:26;99862.05;;;16.80;90.00
35577;BME280;21680;52.400;16.920;2023-09-19T04:04:57;99870.07;;;16.77;89.92
35577;BME280;21680;52.400;16.920;2023-09-19T04:07:23;99876.66;;;16.76;90.10
35577;BME280;21680;52.400;16.920;2023-09-19T04:09:48;99872.09;;;16.74;90.31
35577;BME280;21680;52.400;16.920;2023-09-19T04:12:14;99870.14;;;16.74;90.20
35577;BME280;21680;52.400;16.920;2023-09-19T04:14:42;99872.92;;;16.73;90.26
35577;BME280;21680;52.400;16.920;2023-09-19T04:17:07;99878.44;;;16.72;90.28
35577;BME280;21680;52.400;16.920;2023-09-19T04:19:32;99880.11;;;16.71;90.44
35577;BME280;21680;52.400;16.920;2023-09-19T04:21:58;99874.63;;;16.70;90.41
35577;BME280;21680;52.400;16.920;2023-09-19T04:24:23;99864.41;;;16.69;90.51
35577;BME280;21680;52.400;16.920;2023-09-19T04:26:48;99862.87;;;16.68;90.66
35577;BME280;21680;52.400;16.920;2023-09-19T04:29:14;99858.64;;;16.67;90.78
35577;BME280;21680;52.400;16.920;2023-09-19T04:31:39;99864.10;;;16.66;90.76
35577;BME280;21680;52.400;16.920;2023-09-19T04:34:05;99871.92;;;16.66;90.70
35577;BME280;21680;52.400;16.920;2023-09-19T04:36:31;99874.21;;;16.64;90.90
35577;BME280;21680;52.400;16.920;2023-09-19T04:38:56;99878.28;;;16.62;90.94
35577;BME280;21680;52.400;16.920;2023-09-19T04:41:21;99874.16;;;16.62;90.94
35577;BME280;21680;52.400;16.920;2023-09-19T04:43:47;99873.17;;;16.61;91.13
35577;BME280;21680;52.400;16.920;2023-09-19T04:46:14;99877.36;;;16.60;91.23
35577;BME280;21680;52.400;16.920;2023-09-19T04:48:40;99878.41;;;16.61;91.49
35577;BME280;21680;52.400;16.920;2023-09-19T04:51:06;99874.97;;;16.61;91.46
35577;BME280;21680;52.400;16.920;2023-09-19T04:53:32;99878.73;;;16.61;91.76
35577;BME280;21680;52.400;16.920;2023-09-19T04:55:57;99878.83;;;16.62;91.71
35577;BME280;21680;52.400;16.920;2023-09-19T04:58:23;99878.67;;;16.62;91.80
35577;BME280;21680;52.400;16.920;2023-09-19T05:00:48;99880.86;;;16.62;91.85
35577;BME280;21680;52.400;16.920;2023-09-19T05:03:16;99883.91;;;16.62;92.31
35577;BME280;21680;52.400;16.920;2023-09-19T05:05:42;99884.14;;;16.61;92.20
35577;BME280;21680;52.400;16.920;2023-09-19T05:08:08;99890.12;;;16.61;92.18
35577;BME280;21680;52.400;16.920;2023-09-19T05:10:35;99892.27;;;16.61;92.46
35577;BME280;21680;52.400;16.920;2023-09-19T05:13:04;99889.60;;;16.61;93.04
35577;BME280;21680;52.400;16.920;2023-09-19T05:15:30;99888.55;;;16.60;93.17
35577;BME280;21680;52.400;16.920;2023-09-19T05:17:55;99892.58;;;16.62;93.25
35577;BME280;21680;52.400;16.920;2023-09-19T05:20:22;99892.58;;;16.64;93.36
35577;BME280;21680;52.400;16.920;2023-09-19T05:23:04;99894.88;;;16.67;93.42
35577;BME280;21680;52.400;16.920;2023-09-19T05:25:36;99899.02;;;16.69;93.56
35577;BME280;21680;52.400;16.920;2023-09-19T05:28:02;99896.52;;;16.71;93.89
35577;BME280;21680;52.400;16.920;2023-09-19T05:30:29;99898.11;;;16.74;93.95
35577;BME280;21680;52.400;16.920;2023-09-19T05:32:54;99905.20;;;16.76;93.93
35577;BME280;21680;52.400;16.920;2023-09-19T05:35:21;99908.83;;;16.75;94.15
35577;BME280;21680;52.400;16.920;2023-09-19T05:37:51;99908.48;;;16.77;94.33
35577;BME280;21680;52.400;16.920;2023-09-19T05:40:17;99906.85;;;16.80;94.67
35577;BME280;21680;52.400;16.920;2023-09-19T05:42:43;99910.00;;;16.81;95.15
35577;BME280;21680;52.400;16.920;2023-09-19T05:45:10;99912.80;;;16.82;95.22
35577;BME280;21680;52.400;16.920;2023-09-19T05:47:40;99909.55;;;16.84;95.47
35577;BME280;21680;52.400;16.920;2023-09-19T05:50:11;99909.48;;;16.87;95.23
35577;BME280;21680;52.400;16.920;2023-09-19T05:52:37;99910.84;;;16.90;95.48
35577;BME280;21680;52.400;16.920;2023-09-19T05:55:04;99917.10;;;16.94;95.84
35577;BME280;21680;52.400;16.920;2023-09-19T05:57:33;99911.63;;;16.96;95.74
35577;BME280;21680;52.400;16.920;2023-09-19T05:59:59;99913.64;;;17.00;95.82
35577;BME280;21680;52.400;16.920;2023-09-19T06:02:24;99909.44;;;17.03;95.70
35577;BME280;21680;52.400;16.920;2023-09-19T06:04:54;99914.39;;;17.08;95.66
35577;BME280;21680;52.400;16.920;2023-09-19T06:07:23;99917.36;;;17.12;95.71
35577;BME280;21680;52.400;16.920;2023-09-19T06:09:51;99916.83;;;17.14;95.66
35577;BME280;21680;52.400;16.920;2023-09-19T06:12:18;99924.60;;;17.16;95.68
35577;BME280;21680;52.400;16.920;2023-09-19T06:14:44;99926.35;;;17.19;95.59
35577;BME280;21680;52.400;16.920;2023-09-19T06:17:09;99928.33;;;17.21;95.66
35577;BME280;21680;52.400;16.920;2023-09-19T06:19:35;99930.03;;;17.23;95.62
35577;BME280;21680;52.400;16.920;2023-09-19T06:22:00;99926.35;;;17.26;95.55
35577;BME280;21680;52.400;16.920;2023-09-19T06:24:26;99928.42;;;17.27;95.31
35577;BME280;21680;52.400;16.920;2023-09-19T06:26:51;99932.51;;;17.28;95.26
35577;BME280;21680;52.400;16.920;2023-09-19T06:29:18;99938.79;;;17.28;95.31
35577;BME280;21680;52.400;16.920;2023-09-19T06:31:43;99941.30;;;17.29;95.34
35577;BME280;21680;52.400;16.920;2023-09-19T06:34:10;99944.63;;;17.28;95.18
35577;BME280;21680;52.400;16.920;2023-09-19T06:36:35;99951.48;;;17.25;95.41
35577;BME280;21680;52.400;16.920;2023-09-19T06:39:00;99948.44;;;17.25;95.68
35577;BME280;21680;52.400;16.920;2023-09-19T06:41:26;99952.23;;;17.25;95.52
35577;BME280;21680;52.400;16.920;2023-09-19T06:43:51;99956.79;;;17.27;95.27
35577;BME280;21680;52.400;16.920;2023-09-19T06:46:19;99956.31;;;17.28;95.40
35577;BME280;21680;52.400;16.920;2023-09-19T06:48:44;99960.64;;;17.30;95.37
35577;BME280;21680;52.400;16.920;2023-09-19T06:51:09;99966.16;;;17.33;95.31
35577;BME280;21680;52.400;16.920;2023-09-19T06:53:35;99973.81;;;17.39;95.23
35577;BME280;21680;52.400;16.920;2023-09-19T06:56:01;99979.79;;;17.43;95.35
35577;BME280;21680;52.400;16.920;2023-09-19T06:58:27;99979.28;;;17.49;95.26
35577;BME280;21680;52.400;16.920;2023-09-19T07:00:53;99988.55;;;17.58;95.17
35577;BME280;21680;52.400;16.920;2023-09-19T07:03:19;99992.51;;;17.60;95.37
35577;BME280;21680;52.400;16.920;2023-09-19T07:05:47;99986.23;;;17.59;95.10
35577;BME280;21680;52.400;16.920;2023-09-19T07:08:13;99985.98;;;17.63;95.10
35577;BME280;21680;52.400;16.920;2023-09-19T07:10:43;99997.10;;;17.68;95.20
35577;BME280;21680;52.400;16.920;2023-09-19T07:13:14;99989.84;;;17.70;95.12
35577;BME280;21680;52.400;16.920;2023-09-19T07:15:42;99997.59;;;17.75;95.13
35577;BME280;21680;52.400;16.920;2023-09-19T07:18:12;100006.16;;;17.78;95.19
35577;BME280;21680;52.400;16.920;2023-09-19T07:20:38;100005.64;;;17.82;95.18
35577;BME280;21680;52.400;16.920;2023-09-19T07:23:03;100010.94;;;17.91;94.96
35577;BME280;21680;52.400;16.920;2023-09-19T07:25:29;100016.80;;;17.98;94.75
35577;BME280;21680;52.400;16.920;2023-09-19T07:27:58;100019.31;;;18.05;94.93
35577;BME280;21680;52.400;16.920;2023-09-19T07:30:26;100022.39;;;18.11;94.48
35577;BME280;21680;52.400;16.920;2023-09-19T07:32:52;100024.80;;;18.15;94.31
35577;BME280;21680;52.400;16.920;2023-09-19T07:35:17;100028.48;;;18.18;94.12
35577;BME280;21680;52.400;16.920;2023-09-19T07:37:45;100030.05;;;18.25;94.00
35577;BME280;21680;52.400;16.920;2023-09-19T07:40:15;100029.09;;;18.30;93.89
35577;BME280;21680;52.400;16.920;2023-09-19T07:42:41;100022.49;;;18.35;93.74
35577;BME280;21680;52.400;16.920;2023-09-19T07:45:10;100031.41;;;18.43;93.48
35577;BME280;21680;52.400;16.920;2023-09-19T07:47:43;100031.79;;;18.51;93.13
35577;BME280;21680;52.400;16.920;2023-09-19T07:50:08;100035.39;;;18.55;92.64
35577;BME280;21680;52.400;16.920;2023-09-19T07:52:35;100041.64;;;18.63;92.52
35577;BME280;21680;52.400;16.920;2023-09-19T07:55:00;100042.38;;;18.69;92.05
35577;BME280;21680;52.400;16.920;2023-09-19T07:57:26;100036.06;;;18.69;91.49
35577;BME280;21680;52.400;16.920;2023-09-19T08:00:08;100041.92;;;18.70;91.18
35577;BME280;21680;52.400;16.920;2023-09-19T08:02:37;100042.48;;;18.72;90.61
35577;BME280;21680;52.400;16.920;2023-09-19T08:05:03;100042.08;;;18.76;90.15
35577;BME280;21680;52.400;16.920;2023-09-19T08:07:39;100044.20;;;18.81;89.85
35577;BME280;21680;52.400;16.920;2023-09-19T08:10:05;100038.61;;;18.89;89.65
35577;BME280;21680;52.400;16.920;2023-09-19T08:12:45;100045.00;;;18.97;89.16
35577;BME280;21680;52.400;16.920;2023-09-19T08:15:20;100048.64;;;19.05;88.79
35577;BME280;21680;52.400;16.920;2023-09-19T08:17:46;100054.21;;;19.07;88.11
35577;BME280;21680;52.400;16.920;2023-09-19T08:20:12;100059.86;;;19.11;87.94
35577;BME280;21680;52.400;16.920;2023-09-19T08:22:49;100069.73;;;19.16;87.53
35577;BME280;21680;52.400;16.920;2023-09-19T08:25:18;100073.66;;;19.14;86.88
35577;BME280;21680;52.400;16.920;2023-09-19T08:27:44;100072.88;;;19.16;86.69
35577;BME280;21680;52.400;16.920;2023-09-19T08:30:16;100075.05;;;19.22;86.47
35577;BME280;21680;52.400;16.920;2023-09-19T08:32:43;100081.34;;;19.28;85.92
35577;BME280;21680;52.400;16.920;2023-09-19T08:35:10;100076.84;;;19.26;85.27
35577;BME280;21680;52.400;16.920;2023-09-19T08:37:35;100081.57;;;19.28;85.39
35577;BME280;21680;52.400;16.920;2023-09-19T08:40:01;100089.98;;;19.31;84.91
35577;BME280;21680;52.400;16.920;2023-09-19T08:42:27;100096.67;;;19.29;84.27
35577;BME280;21680;52.400;16.920;2023-09-19T08:44:52;100098.10;;;19.27;83.99
35577;BME280;21680;52.400;16.920;2023-09-19T08:47:34;100096.45;;;19.30;83.79
35577;BME280;21680;52.400;16.920;2023-09-19T08:50:04;100090.56;;;19.29;82.81
35577;BME280;21680;52.400;16.920;2023-09-19T08:52:43;100089.30;;;19.29;82.47
35577;BME280;21680;52.400;16.920;2023-09-19T08:55:12;100086.36;;;19.31;82.34
35577;BME280;21680;52.400;16.920;2023-09-19T08:57:38;100092.58;;;19.32;81.89
35577;BME280;21680;52.400;16.920;2023-09-19T09:00:07;100090.14;;;19.33;81.13
35577;BME280;21680;52.400;16.920;2023-09-19T09:02:40;100092.66;;;19.37;81.01
35577;BME280;21680;52.400;16.920;2023-09-19T09:05:08;100096.02;;;19.36;79.72
35577;BME280;21680;52.400;16.920;2023-09-19T09:07:35;100093.16;;;19.29;79.44
35577;BME280;21680;52.400;16.920;2023-09-19T09:10:05;100092.77;;;19.30;79.23
35577;BME280;21680;52.400;16.920;2023-09-19T09:12:30;100089.23;;;19.31;79.20
35577;BME280;21680;52.400;16.920;2023-09-19T09:14:56;100087.80;;;19.33;78.83
35577;BME280;21680;52.400;16.920;2023-09-19T09:17:26;100091.59;;;19.35;78.10
35577;BME280;21680;52.400;16.920;2023-09-19T09:19:54;100100.29;;;19.29;77.29
35577;BME280;21680;52.400;16.920;2023-09-19T09:22:20;100103.02;;;19.25;76.82
35577;BME280;21680;52.400;16.920;2023-09-19T09:24:52;100108.71;;;19.22;76.52
35577;BME280;21680;52.400;16.920;2023-09-19T09:27:23;100119.44;;;19.17;75.52
35577;BME280;21680;52.400;16.920;2023-09-19T09:29:50;100126.09;;;19.13;73.95
35577;BME280;21680;52.400;16.920;2023-09-19T09:32:17;100127.44;;;19.10;73.26
35577;BME280;21680;52.400;16.920;2023-09-19T09:34:46;100127.08;;;19.13;72.91
35577;BME280;21680;52.400;16.920;2023-09-19T09:37:14;100124.76;;;19.17;72.53
35577;BME280;21680;52.400;16.920;2023-09-19T09:39:49;100126.21;;;19.12;72.20
35577;BME280;21680;52.400;16.920;2023-09-19T09:42:36;100133.52;;;19.13;72.19
35577;BME280;21680;52.400;16.920;2023-09-19T09:45:20;100137.19;;;19.15;71.49
35577;BME280;21680;52.400;16.920;2023-09-19T09:47:58;100140.54;;;19.17;71.36
35577;BME280;21680;52.400;16.920;2023-09-19T09:50:39;100151.52;;;19.21;71.08
35577;BME280;21680;52.400;16.920;2023-09-19T09:53:30;100154.55;;;19.18;70.33
35577;BME280;21680;52.400;16.920;2023-09-19T09:56:07;100162.95;;;19.21;69.70
35577;BME280;21680;52.400;16.920;2023-09-19T09:58:51;100164.23;;;19.25;68.99
35577;BME280;21680;52.400;16.920;2023-09-19T10:01:21;100161.55;;;19.31;68.59
35577;BME280;21680;52.400;16.920;2023-09-19T10:03:56;100158.19;;;19.40;68.36
35577;BME280;21680;52.400;16.920;2023-09-19T10:06:22;100159.52;;;19.50;68.69
35577;BME280;21680;52.400;16.920;2023-09-19T10:09:20;100159.99;;;19.63;67.91
35577;BME280;21680;52.400;16.920;2023-09-19T10:12:04;100174.45;;;19.67;66.55
35577;BME280;21680;52.400;16.920;2023-09-19T10:14:34;100167.38;;;19.68;66.60
35577;BME280;21680;52.400;16.920;2023-09-19T10:17:01;100170.08;;;19.76;66.36
35577;BME280;21680;52.400;16.920;2023-09-19T10:19:33;100166.23;;;19.81;65.64
35577;BME280;21680;52.400;16.920;2023-09-19T10:22:02;100161.24;;;19.88;65.35
35577;BME280;21680;52.400;16.920;2023-09-19T10:24:30;100157.92;;;19.94;64.66
35577;BME280;21680;52.400;16.920;2023-09-19T10:26:56;100147.05;;;20.06;65.29
35577;BME280;21680;52.400;16.920;2023-09-19T10:29:24;100153.66;;;20.27;65.36
35577;BME280;21680;52.400;16.920;2023-09-19T10:31:52;100153.04;;;20.40;64.68
35577;BME280;21680;52.400;16.920;2023-09-19T10:34:19;100145.73;;;20.46;64.35
35577;BME280;21680;52.400;16.920;2023-09-19T10:36:46;100151.34;;;20.51;63.34
35577;BME280;21680;52.400;16.920;2023-09-19T10:39:16;100146.81;;;20.50;63.26
35577;BME280;21680;52.400;16.920;2023-09-19T10:41:51;100144.76;;;20.61;63.30
35577;BME280;21680;52.400;16.920;2023-09-19T10:44:23;100150.15;;;20.71;63.00
35577;BME280;21680;52.400;16.920;2023-09-19T10:46:51;100152.14;;;20.80;62.75
35577;BME280;21680;52.400;16.920;2023-09-19T10:49:18;100159.44;;;20.82;62.05
35577;BME280;21680;52.400;16.920;2023-09-19T10:51:44;100153.84;;;20.78;61.33
35577;BME280;21680;52.400;16.920;2023-09-19T10:54:13;100162.52;;;20.78;61.28
35577;BME280;21680;52.400;16.920;2023-09-19T10:56:49;100164.70;;;20.90;61.19
35577;BME280;21680;52.400;16.920;2023-09-19T10:59:21;100172.91;;;20.91;59.71
35577;BME280;21680;52.400;16.920;2023-09-19T11:01:51;100171.84;;;20.91;59.55
35577;BME280;21680;52.400;16.920;2023-09-19T11:07:13;100183.23;;;20.91;58.15
35577;BME280;21680;52.400;16.920;2023-09-19T11:15:02;100187.58;;;20.65;55.81
35577;BME280;21680;52.400;16.920;2023-09-19T11:17:45;100187.93;;;20.67;55.30
35577;BME280;21680;52.400;16.920;2023-09-19T11:30:37;100201.08;;;20.81;53.98
35577;BME280;21680;52.400;16.920;2023-09-19T11:33:29;100199.00;;;20.71;53.98
35577;BME280;21680;52.400;16.920;2023-09-19T11:36:15;100199.91;;;20.63;54.17
35577;BME280;21680;52.400;16.920;2023-09-19T11:43:52;100205.35;;;20.31;54.46
35577;BME280;21680;52.400;16.920;2023-09-19T11:46:21;100207.89;;;20.29;55.04
35577;BME280;21680;52.400;16.920;2023-09-19T11:48:51;100202.16;;;20.30;55.14
35577;BME280;21680;52.400;16.920;2023-09-19T11:51:17;100204.02;;;20.20;55.02
35577;BME280;21680;52.400;16.920;2023-09-19T11:53:45;100199.58;;;20.19;55.48
35577;BME280;21680;52.400;16.920;2023-09-19T11:56:17;100192.66;;;20.33;55.57
35577;BME280;21680;52.400;16.920;2023-09-19T11:58:45;100191.35;;;20.44;55.66
35577;BME280;21680;52.400;16.920;2023-09-19T12:01:13;100195.13;;;20.48;55.88
35577;BME280;21680;52.400;16.920;2023-09-19T12:03:42;100191.93;;;20.61;56.19
35577;BME280;21680;52.400;16.920;2023-09-19T12:06:14;100200.35;;;20.83;56.13
35577;BME280;21680;52.400;16.920;2023-09-19T12:08:41;100203.31;;;20.96;55.21
35577;BME280;21680;52.400;16.920;2023-09-19T12:11:12;100206.17;;;21.00;54.40
35577;BME280;21680;52.400;16.920;2023-09-19T12:13:44;100201.30;;;21.04;54.36
35577;BME280;21680;52.400;16.920;2023-09-19T12:16:13;100190.16;;;21.16;53.91
35577;BME280;21680;52.400;16.920;2023-09-19T12:18:40;100196.09;;;21.29;52.86
35577;BME280;21680;52.400;16.920;2023-09-19T12:21:08;100190.88;;;21.37;51.99
35577;BME280;21680;52.400;16.920;2023-09-19T12:23:37;100197.84;;;21.41;51.02
35577;BME280;21680;52.400;16.920;2023-09-19T12:26:07;100182.37;;;21.43;50.94
35577;BME280;21680;52.400;16.920;2023-09-19T12:28:41;100182.40;;;21.54;50.61
35577;BME280;21680;52.400;16.920;2023-09-19T12:31:07;100182.91;;;21.61;49.92
35577;BME280;21680;52.400;16.920;2023-09-19T12:33:34;100185.55;;;21.66;49.04
35577;BME280;21680;52.400;16.920;2023-09-19T12:36:19;100188.80;;;21.68;49.14
35577;BME280;21680;52.400;16.920;2023-09-19T12:38:48;100186.84;;;21.75;49.01
35577;BME280;21680;52.400;16.920;2023-09-19T12:41:13;100193.73;;;21.83;48.55
35577;BME280;21680;52.400;16.920;2023-09-19T12:43:39;100180.62;;;21.80;48.78
35577;BME280;21680;52.400;16.920;2023-09-19T12:46:07;100182.23;;;21.93;49.44
35577;BME280;21680;52.400;16.920;2023-09-19T12:48:32;100176.95;;;22.20;49.69
35577;BME280;21680;52.400;16.920;2023-09-19T12:51:00;100182.64;;;22.40;48.98
35577;BME280;21680;52.400;16.920;2023-09-19T12:53:32;100186.20;;;22.57;49.40
35577;BME280;21680;52.400;16.920;2023-09-19T12:56:00;100192.95;;;22.65;48.86
35577;BME280;21680;52.400;16.920;2023-09-19T12:58:26;100193.03;;;22.60;48.11
35577;BME280;21680;52.400;16.920;2023-09-19T13:00:52;100184.62;;;22.58;48.28
35577;BME280;21680;52.400;16.920;2023-09-19T13:03:18;100184.97;;;22.78;48.17
35577;BME280;21680;52.400;16.920;2023-09-19T13:05:55;100178.66;;;22.92;48.10
35577;BME280;21680;52.400;16.920;2023-09-19T13:08:24;100191.17;;;22.96;47.16
35577;BME280;21680;52.400;16.920;2023-09-19T13:11:10;100191.48;;;22.96;47.45
35577;BME280;21680;52.400;16.920;2023-09-19T13:13:43;100186.17;;;22.78;46.51
35577;BME280;21680;52.400;16.920;2023-09-19T13:16:10;100191.16;;;22.36;47.20
35577;BME280;21680;52.400;16.920;2023-09-19T13:18:53;100191.02;;;22.35;47.24